Hewittville, New York
Current Conditions -  °F | °C
As of 5:42 AM on Monday 22 Dec 2014 (Local Time) from KMSS Reporting Station
Haze Haze  
Wind Chill: -14°   Ceiling: 500
Heat Index: -9°   Visibility: 4mi
Dew Point: -11°   Wind: 6mph
Humidity: 88%   Direction: 70°ENE
Pressure: 30.41"   Gusts: NA
Location:  44.7612°N, 74.9585°W
Report Text: KMSS 221042Z AUTO 07005KT 4SM BR OVC005 M09/M11 A3041 RMK AO2 I1000 T10891106
Loading
Personal Weather Stations






























Interactive Weather Map New forecast layout! Learn more

10-Day Weather Forecast

Advertisements
Track Severe Weather on mobile